Thursday, April 17, 2014
21:42 UTC
  |  Log In   |  Register Free
Airport Search:

Faribault Municipal Airport
(KFBL)

Faribault Municipal Airport Diagram
No Airport Diagram Available

FAA data valid effective April 3, 2014 until May 29, 2014 (unless otherwise noted).

 
 
 
 
 
 
 
 
 
 
 
 
 
 

Current Aviation Weather for Faribault Municipal Airport (KFBL)

The most recent METAR observation for KFBL was updated at: 2054 UTC
METAR Summary (Translated METAR)
KFBL
172054Z AUTO 27005KT 10SM OVC020 04/M03 A3029 RMK AO2
KOWA
(12.5 nm SE from KFBL)
172054Z AUTO 31006KT 10SM OVC018 02/M02 A3029 RMK AO2
TAF
No TAF information found within 50 nm of KFBL
  Airport Weather Conditions for KFBL

 Current Weather at FBL
39° F
Overcast
West winds at 5.8 mph
FBL NOAA Radar

Pressure: 30.29 in
Humidity: 61%
Wind: West at 5.8 MPH (5 KT)
Dew Point: 26.6°F
Visibility: 10.00 mi


Airport Weather Forecast for KFBL

Translated METAR and TAF for KFBL
Translated METAR for KFBL (2142 UTC 17 April 2014)
found at http://aviationweather.gov/adds/metars/
 
METAR text: KFBL 172134Z AUTO 24003KT 10SM OVC022 05/M03 A3029 RMK AO2
Conditions at: KFBL (FARIBAULT MUNI , MN, US) observed 2134 UTC 17 April 2014
Temperature: 5.0°C (41°F)
Dewpoint: -3.0°C (27°F) [RH = 56%]
Pressure (altimeter): 30.29 inches Hg (1025.8 mb)
Winds: from the WSW (240 degrees) at 3 MPH (3 knots; 1.6 m/s)
Visibility: 10 or more miles (16+ km)
Ceiling: 2200 feet AGL
Clouds: overcast cloud deck at 2200 feet AGL
Weather: automated observation with no human augmentation;
there may or may not be significant weather present at this time
Translated TAF for KFBL

There is no translated TAF available for this airport

Find All Airport Services Find A Hotel Find A Rental Car Find A Golf Course Find A Restaurant $100 Hamburger



FBO's on the Field
FBO Company Facility Photos Services Transportation Aviation Fuel Prices: Prices include tax
Catering Weather Repair Courtesy Rental Type 100LL JetA JetA+ MOGAS 8087
 
Quality Aviation

This FBO has not yet been rated
FS:Independent
Last Updated: Mar-25
Login to update fuel prices
SS:
Contact Quality AviationMore FBO Information
 
Add another FBO Facility Photos Catering Weather Repair Courtesy Rental Type 100LL JetA JetA+ MOGAS 8087
Services Transportation Aviation Fuel Prices: Prices include tax


GlobalAir.com Airport Resource Center model-print
model-print
model-print
model-print